createdAt,value
2022-08-20T00:00:08.991Z,0.00
2022-08-20T00:01:09.268Z,0.00
2022-08-20T00:02:09.625Z,0.00
2022-08-20T00:03:09.778Z,0.00
2022-08-20T00:04:10.077Z,0.00
2022-08-20T00:05:10.380Z,0.00
2022-08-20T00:06:10.661Z,0.00
2022-08-20T00:07:10.965Z,0.00
2022-08-20T00:08:11.198Z,0.00
2022-08-20T00:09:11.518Z,0.00
2022-08-20T00:10:11.759Z,0.00
2022-08-20T00:11:12.063Z,0.00
2022-08-20T00:12:12.290Z,0.00
2022-08-20T00:13:12.972Z,0.00
2022-08-20T00:14:12.886Z,0.00
2022-08-20T00:15:13.134Z,0.00
2022-08-20T00:16:13.410Z,0.00
2022-08-20T00:17:13.690Z,0.00
2022-08-20T00:18:13.970Z,0.00
2022-08-20T00:19:14.290Z,0.00
2022-08-20T00:20:14.533Z,0.00
2022-08-20T00:21:19.135Z,0.00
2022-08-20T00:22:15.184Z,0.00
2022-08-20T00:23:15.465Z,0.00
2022-08-20T00:24:15.765Z,0.00
2022-08-20T00:25:16.002Z,0.00
2022-08-20T00:26:16.281Z,0.00
2022-08-20T00:27:16.561Z,0.00
2022-08-20T00:28:16.873Z,0.00
2022-08-20T00:29:17.166Z,0.00
2022-08-20T00:30:17.495Z,0.00
2022-08-20T00:31:17.782Z,0.00
2022-08-20T00:32:18.072Z,0.00
2022-08-20T00:33:18.363Z,0.00
2022-08-20T00:34:18.681Z,0.00
2022-08-20T00:35:18.912Z,0.00
2022-08-20T00:36:19.221Z,0.00
2022-08-20T00:37:19.463Z,0.00
2022-08-20T00:38:19.703Z,0.00
2022-08-20T00:39:20.002Z,0.00
2022-08-20T00:40:22.191Z,0.00
2022-08-20T00:41:20.596Z,0.00
2022-08-20T00:42:20.857Z,0.00
2022-08-20T00:43:21.138Z,0.00
2022-08-20T00:44:21.410Z,0.00
2022-08-20T00:45:21.680Z,0.00
2022-08-20T00:46:21.958Z,0.00
2022-08-20T00:47:23.184Z,0.00
2022-08-20T00:48:22.508Z,0.00
2022-08-20T00:49:22.785Z,0.00
2022-08-20T00:50:23.037Z,0.00
2022-08-20T00:51:23.337Z,0.00
2022-08-20T00:52:23.589Z,0.00
2022-08-20T00:53:23.838Z,0.00
2022-08-20T00:54:24.149Z,0.00
2022-08-20T00:55:27.380Z,0.00
2022-08-20T00:56:25.649Z,0.00
2022-08-20T00:57:24.949Z,0.00
2022-08-20T00:58:25.247Z,0.00
2022-08-20T00:59:25.539Z,0.00
2022-08-20T01:00:25.851Z,0.00
2022-08-20T01:01:26.108Z,0.00
2022-08-20T01:02:26.370Z,0.00
2022-08-20T01:03:26.663Z,0.00
2022-08-20T01:04:26.975Z,0.00
2022-08-20T01:05:29.517Z,0.00
2022-08-20T01:06:27.496Z,0.00
2022-08-20T01:07:27.767Z,0.00
2022-08-20T01:08:28.063Z,0.00
2022-08-20T01:09:49.604Z,0.00
2022-08-20T01:10:29.602Z,0.00
2022-08-20T01:11:28.921Z,0.00
2022-08-20T01:12:30.169Z,0.00
2022-08-20T01:13:29.458Z,0.00
2022-08-20T01:14:29.761Z,0.00
2022-08-20T01:15:30.963Z,0.00
2022-08-20T01:16:30.291Z,0.00
2022-08-20T01:17:30.580Z,0.00
2022-08-20T01:18:30.859Z,0.00
2022-08-20T01:19:31.152Z,0.00
2022-08-20T01:20:31.411Z,0.00
2022-08-20T01:21:31.680Z,0.00
2022-08-20T01:22:31.977Z,0.00
2022-08-20T01:23:32.268Z,0.00
2022-08-20T01:24:32.551Z,0.00
2022-08-20T01:25:32.819Z,0.00
2022-08-20T01:26:33.113Z,0.00
2022-08-20T01:27:33.690Z,0.00
2022-08-20T01:28:34.649Z,0.00
2022-08-20T01:29:34.003Z,0.00
2022-08-20T01:30:34.253Z,0.00
2022-08-20T01:31:34.545Z,0.00
2022-08-20T01:32:34.850Z,0.00
2022-08-20T01:33:35.079Z,0.00
2022-08-20T01:34:35.422Z,0.00
2022-08-20T01:35:35.684Z,0.00
2022-08-20T01:36:35.931Z,0.00
2022-08-20T01:37:36.212Z,0.00
2022-08-20T01:38:36.481Z,0.00
2022-08-20T01:39:36.822Z,0.00
2022-08-20T01:40:37.064Z,0.00
2022-08-20T01:41:37.319Z,0.00
2022-08-20T01:42:37.589Z,0.00
2022-08-20T01:43:38.822Z,0.00
2022-08-20T01:44:38.193Z,0.00
2022-08-20T01:45:38.424Z,0.00
2022-08-20T01:46:38.966Z,0.00
2022-08-20T01:47:39.993Z,0.00
2022-08-20T01:48:39.315Z,0.00
2022-08-20T01:49:39.612Z,0.00
2022-08-20T01:50:39.873Z,0.00
2022-08-20T01:51:40.115Z,0.00
2022-08-20T01:52:40.427Z,0.00
2022-08-20T01:53:40.693Z,0.00
2022-08-20T01:54:40.983Z,0.00
2022-08-20T01:55:41.287Z,0.00
2022-08-20T01:56:41.567Z,0.00
2022-08-20T01:57:41.843Z,0.00
2022-08-20T01:58:42.136Z,0.00
2022-08-20T01:59:42.434Z,0.00
2022-08-20T02:00:42.696Z,0.00
2022-08-20T02:01:46.431Z,0.00
2022-08-20T02:02:43.306Z,0.00
2022-08-20T02:03:44.721Z,0.00
2022-08-20T02:04:43.894Z,0.00
2022-08-20T02:05:44.155Z,0.00
2022-08-20T02:06:56.339Z,0.00
2022-08-20T02:07:45.646Z,0.00
2022-08-20T02:08:44.958Z,0.00
2022-08-20T02:09:45.298Z,0.00
2022-08-20T02:10:45.544Z,0.00
2022-08-20T02:11:45.843Z,0.00
2022-08-20T02:12:46.116Z,0.00
2022-08-20T02:13:46.398Z,0.00
2022-08-20T02:14:46.708Z,0.00
2022-08-20T02:15:46.935Z,0.00
2022-08-20T02:16:54.485Z,0.00
2022-08-20T02:17:48.456Z,0.00
2022-08-20T02:18:47.789Z,0.00
2022-08-20T02:19:48.034Z,0.00
2022-08-20T02:20:48.320Z,0.00
2022-08-20T02:21:48.596Z,0.00
2022-08-20T02:22:50.079Z,0.00
2022-08-20T02:23:49.238Z,0.00
2022-08-20T02:24:49.569Z,0.00
2022-08-20T02:25:49.809Z,0.00
2022-08-20T02:26:50.121Z,0.00
2022-08-20T02:27:50.379Z,0.00
2022-08-20T02:28:50.622Z,0.00
2022-08-20T02:29:50.918Z,0.00
2022-08-20T02:30:51.178Z,0.00
2022-08-20T02:32:24.928Z,0.00
2022-08-20T02:32:52.720Z,0.00
2022-08-20T02:34:22.306Z,0.00
2022-08-20T02:34:53.213Z,0.00
2022-08-20T02:35:52.498Z,0.00
2022-08-20T02:36:52.789Z,0.00
2022-08-20T02:37:53.085Z,0.00
2022-08-20T02:38:53.328Z,0.00
2022-08-20T02:39:53.687Z,0.00
2022-08-20T02:40:53.942Z,0.00
2022-08-20T02:41:54.168Z,0.00
2022-08-20T02:42:54.462Z,0.00
2022-08-20T02:43:54.752Z,0.00
2022-08-20T02:44:55.063Z,0.00
2022-08-20T02:45:55.322Z,0.00
2022-08-20T02:46:55.572Z,0.00
2022-08-20T02:47:56.005Z,0.00
2022-08-20T02:48:56.153Z,0.00
2022-08-20T02:49:56.460Z,0.00
2022-08-20T02:50:56.727Z,0.00
2022-08-20T02:51:56.969Z,0.00
2022-08-20T02:52:57.262Z,0.00
2022-08-20T02:53:57.530Z,0.00
2022-08-20T02:54:57.848Z,0.00
2022-08-20T02:55:58.095Z,0.00
2022-08-20T02:56:58.382Z,0.00
2022-08-20T02:57:59.489Z,0.00
2022-08-20T02:58:58.945Z,0.00
2022-08-20T02:59:59.244Z,0.00
2022-08-20T03:00:59.509Z,0.00
2022-08-20T03:02:00.787Z,0.00
2022-08-20T03:03:00.012Z,0.00
2022-08-20T03:04:00.287Z,0.00
2022-08-20T03:05:00.581Z,0.00
2022-08-20T03:06:00.874Z,0.00
2022-08-20T03:07:01.133Z,0.00
2022-08-20T03:08:01.489Z,0.00
2022-08-20T03:09:01.702Z,0.00
2022-08-20T03:10:02.002Z,0.00
2022-08-20T03:11:02.258Z,0.00
2022-08-20T03:12:02.542Z,0.00
2022-08-20T03:13:02.836Z,0.00
2022-08-20T03:14:03.125Z,0.00
2022-08-20T03:15:03.404Z,0.00
2022-08-20T03:16:03.675Z,0.00
2022-08-20T03:17:03.966Z,0.00
2022-08-20T03:18:04.243Z,0.00
2022-08-20T03:19:04.543Z,0.00
2022-08-20T03:20:04.837Z,0.00
2022-08-20T03:21:05.063Z,0.00
2022-08-20T03:22:05.405Z,0.00
2022-08-20T03:23:05.694Z,0.00
2022-08-20T03:24:05.964Z,0.00
2022-08-20T03:25:06.278Z,0.00
2022-08-20T03:26:06.517Z,0.00
2022-08-20T03:27:06.815Z,0.00
2022-08-20T03:28:07.104Z,0.00
2022-08-20T03:29:07.386Z,0.00
2022-08-20T03:30:07.705Z,0.00
2022-08-20T03:31:07.957Z,0.00
2022-08-20T03:32:08.245Z,0.00
2022-08-20T03:33:08.524Z,0.00
2022-08-20T03:34:08.809Z,0.00
2022-08-20T03:35:09.117Z,0.00
2022-08-20T03:36:09.356Z,0.00
2022-08-20T03:37:09.658Z,0.00
2022-08-20T03:38:09.905Z,0.00
2022-08-20T03:39:10.188Z,0.00
2022-08-20T03:40:10.509Z,0.00
2022-08-20T03:41:10.749Z,0.00
2022-08-20T03:42:10.985Z,0.00
2022-08-20T03:43:11.280Z,0.00
2022-08-20T03:44:11.589Z,0.00
2022-08-20T03:45:11.878Z,0.00
2022-08-20T03:46:23.152Z,0.00
2022-08-20T03:47:13.366Z,0.00
2022-08-20T03:48:12.680Z,0.00
2022-08-20T03:49:12.949Z,0.00
2022-08-20T03:50:14.794Z,0.00
2022-08-20T03:51:14.506Z,0.00
2022-08-20T03:52:13.822Z,0.00
2022-08-20T03:53:14.728Z,0.00
2022-08-20T03:54:14.390Z,0.00
2022-08-20T03:55:14.700Z,0.00
2022-08-20T03:56:14.950Z,0.00
2022-08-20T03:57:15.229Z,0.00
2022-08-20T03:58:15.528Z,20.00
2022-08-20T03:59:15.821Z,20.00
2022-08-20T04:00:16.142Z,20.00
2022-08-20T04:01:45.374Z,20.00
2022-08-20T04:02:17.651Z,20.00
2022-08-20T04:03:16.958Z,20.00
2022-08-20T04:04:17.272Z,20.00
2022-08-20T04:05:17.579Z,20.00
2022-08-20T04:06:17.870Z,20.00
2022-08-20T04:07:18.173Z,20.00
2022-08-20T04:08:18.458Z,20.00
2022-08-20T04:09:18.760Z,20.00
2022-08-20T04:10:19.113Z,24.00
2022-08-20T04:11:19.386Z,24.00
2022-08-20T04:12:19.653Z,24.00
2022-08-20T04:13:19.910Z,24.00
2022-08-20T04:14:20.661Z,20.00
2022-08-20T04:15:20.520Z,24.00
2022-08-20T04:16:20.819Z,24.00
2022-08-20T04:17:21.090Z,24.00
2022-08-20T04:18:21.409Z,28.00
2022-08-20T04:19:21.665Z,32.00
2022-08-20T04:20:21.981Z,36.00
2022-08-20T04:21:22.253Z,40.00
2022-08-20T04:22:22.543Z,40.00
2022-08-20T04:23:22.842Z,48.00
2022-08-20T04:24:32.085Z,52.00
2022-08-20T04:25:24.394Z,56.00
2022-08-20T04:26:23.661Z,60.00
2022-08-20T04:27:23.951Z,56.00
2022-08-20T04:28:24.275Z,64.00
2022-08-20T04:29:24.541Z,68.00
2022-08-20T04:30:24.803Z,76.00
2022-08-20T04:31:25.604Z,76.00
2022-08-20T04:32:25.364Z,84.00
2022-08-20T04:33:33.583Z,88.00
2022-08-20T04:34:26.902Z,92.00
2022-08-20T04:35:26.245Z,96.00
2022-08-20T04:36:26.516Z,112.00
2022-08-20T04:37:26.840Z,108.00
2022-08-20T04:38:27.143Z,112.00
2022-08-20T04:39:28.392Z,136.00
2022-08-20T04:40:27.747Z,152.00
2022-08-20T04:41:28.013Z,172.00
2022-08-20T04:42:28.337Z,184.00
2022-08-20T04:43:28.633Z,196.00
2022-08-20T04:44:28.943Z,204.00
2022-08-20T04:45:29.278Z,208.00
2022-08-20T04:46:29.565Z,216.00
2022-08-20T04:47:34.659Z,220.00
2022-08-20T04:48:31.136Z,224.00
2022-08-20T04:49:30.435Z,208.00
2022-08-20T04:50:30.754Z,212.00
2022-08-20T04:51:31.028Z,228.00
2022-08-20T04:52:31.275Z,232.00
2022-08-20T04:53:31.598Z,224.00
2022-08-20T04:54:31.875Z,204.00
2022-08-20T04:55:32.208Z,216.00
2022-08-20T04:56:32.486Z,228.00
2022-08-20T04:57:32.813Z,224.00
2022-08-20T04:58:33.149Z,212.00
2022-08-20T04:59:33.466Z,172.00
2022-08-20T05:00:33.860Z,200.00
2022-08-20T05:01:34.198Z,156.00
2022-08-20T05:02:34.487Z,164.00
2022-08-20T05:03:34.732Z,192.00
2022-08-20T05:04:35.031Z,196.00
2022-08-20T05:05:35.376Z,220.00
2022-08-20T05:06:35.606Z,240.00
2022-08-20T05:07:35.837Z,240.00
2022-08-20T05:08:36.082Z,236.00
2022-08-20T05:09:43.924Z,240.00
2022-08-20T05:10:37.631Z,232.00
2022-08-20T05:11:37.138Z,224.00
2022-08-20T05:12:37.170Z,220.00
2022-08-20T05:13:37.448Z,220.00
2022-08-20T05:14:37.788Z,208.00
2022-08-20T05:15:38.148Z,212.00
2022-08-20T05:16:38.465Z,220.00
2022-08-20T05:17:38.688Z,232.00
2022-08-20T05:18:45.952Z,212.00
2022-08-20T05:19:40.210Z,172.00
2022-08-20T05:20:39.565Z,160.00
2022-08-20T05:21:39.845Z,164.00
2022-08-20T05:22:40.196Z,168.00
2022-08-20T05:23:40.530Z,144.00
2022-08-20T05:24:40.746Z,104.00
2022-08-20T05:25:41.103Z,112.00
2022-08-20T05:26:41.398Z,120.00
2022-08-20T05:27:44.658Z,124.00
2022-08-20T05:28:57.191Z,132.00
2022-08-20T05:29:43.335Z,148.00
2022-08-20T05:30:42.584Z,164.00
2022-08-20T05:31:42.803Z,180.00
2022-08-20T05:32:44.349Z,192.00
2022-08-20T05:33:43.446Z,208.00
2022-08-20T05:34:43.668Z,204.00
2022-08-20T05:35:44.028Z,176.00
2022-08-20T05:36:44.325Z,188.00
2022-08-20T05:37:44.664Z,168.00
2022-08-20T05:38:45.003Z,204.00
2022-08-20T05:39:45.335Z,228.00
2022-08-20T05:40:45.646Z,268.00
2022-08-20T05:41:45.959Z,296.00
2022-08-20T05:42:46.181Z,352.00
2022-08-20T05:43:46.416Z,388.00
2022-08-20T05:44:47.687Z,420.00
2022-08-20T05:45:46.937Z,436.00
2022-08-20T05:46:47.157Z,448.00
2022-08-20T05:47:47.500Z,452.00
2022-08-20T05:48:48.789Z,484.00
2022-08-20T05:49:48.026Z,524.00
2022-08-20T05:50:48.279Z,572.00
2022-08-20T05:51:48.576Z,596.00
2022-08-20T05:52:48.934Z,644.00
2022-08-20T05:53:49.136Z,696.00
2022-08-20T05:54:49.489Z,728.00
2022-08-20T05:55:49.718Z,824.00
2022-08-20T05:56:49.944Z,916.00
2022-08-20T05:57:50.340Z,988.00
2022-08-20T05:58:50.624Z,1020.00
2022-08-20T05:59:50.899Z,1044.00
2022-08-20T06:00:51.252Z,1084.00
2022-08-20T06:01:51.418Z,1092.00
2022-08-20T06:02:51.663Z,1088.00
2022-08-20T06:03:51.921Z,1048.00
2022-08-20T06:04:55.989Z,952.00
2022-08-20T06:05:52.540Z,828.00
2022-08-20T06:06:52.758Z,728.00
2022-08-20T06:07:54.733Z,704.00
2022-08-20T06:08:53.345Z,736.00
2022-08-20T06:09:53.682Z,788.00
2022-08-20T06:10:54.039Z,880.00
2022-08-20T06:11:54.348Z,964.00
2022-08-20T06:12:55.627Z,1016.00
2022-08-20T06:13:54.877Z,1072.00
2022-08-20T06:14:55.130Z,1140.00
2022-08-20T06:15:55.378Z,1176.00
2022-08-20T06:16:57.578Z,1216.00
2022-08-20T06:17:58.193Z,1244.00
2022-08-20T06:18:58.228Z,1284.00
2022-08-20T06:19:56.496Z,1396.00
2022-08-20T06:20:56.749Z,1472.00
2022-08-20T06:21:57.049Z,1540.00
2022-08-20T06:22:57.390Z,1536.00
2022-08-20T06:24:00.014Z,1512.00
2022-08-20T06:24:57.859Z,1548.00
2022-08-20T06:25:58.111Z,1532.00
2022-08-20T06:26:58.354Z,1628.00
2022-08-20T06:27:58.741Z,1824.00
2022-08-20T06:28:58.811Z,1924.00
2022-08-20T06:29:59.064Z,2012.00
2022-08-20T06:30:59.311Z,2036.00
2022-08-20T06:31:59.640Z,2092.00
2022-08-20T06:32:59.851Z,2108.00
2022-08-20T06:34:00.108Z,2228.00
2022-08-20T06:35:00.351Z,2328.00
2022-08-20T06:36:00.671Z,2488.00
2022-08-20T06:37:00.982Z,2424.00
2022-08-20T06:38:01.235Z,2616.00
2022-08-20T06:39:01.452Z,2892.00
2022-08-20T06:40:01.767Z,2948.00
2022-08-20T06:41:02.006Z,2952.00
2022-08-20T06:42:02.208Z,2928.00
2022-08-20T06:43:02.442Z,2848.00
2022-08-20T06:44:02.696Z,2740.00
2022-08-20T06:45:02.936Z,2880.00
2022-08-20T06:46:03.185Z,3168.00
2022-08-20T06:47:03.513Z,3264.00
2022-08-20T06:48:03.746Z,3324.00
2022-08-20T06:49:04.008Z,3552.00
2022-08-20T06:50:04.316Z,3920.00
2022-08-20T06:51:04.562Z,4212.00
2022-08-20T06:52:04.796Z,4828.00
2022-08-20T06:53:05.331Z,5420.00
2022-08-20T06:54:05.279Z,6180.00
2022-08-20T06:55:05.525Z,6628.00
2022-08-20T06:56:05.776Z,7220.00
2022-08-20T06:57:06.081Z,7620.00
2022-08-20T06:58:06.326Z,7184.00
2022-08-20T06:59:06.567Z,6956.00
2022-08-20T07:00:06.806Z,5648.00
2022-08-20T07:01:09.401Z,5108.00
2022-08-20T07:02:07.268Z,4804.00
2022-08-20T07:03:07.568Z,4424.00
2022-08-20T07:04:07.764Z,4284.00
2022-08-20T07:05:08.025Z,4276.00
2022-08-20T07:06:08.270Z,4288.00
2022-08-20T07:07:08.557Z,4308.00
2022-08-20T07:08:08.933Z,4076.00
2022-08-20T07:09:09.166Z,3836.00
2022-08-20T07:10:09.412Z,4080.00
2022-08-20T07:11:09.667Z,4708.00
2022-08-20T07:12:09.976Z,5952.00
2022-08-20T07:13:10.216Z,6196.00
2022-08-20T07:14:10.478Z,5792.00
2022-08-20T07:15:10.788Z,5624.00
2022-08-20T07:16:11.038Z,5480.00
2022-08-20T07:17:12.270Z,5032.00
2022-08-20T07:18:11.582Z,4348.00
2022-08-20T07:19:11.849Z,4012.00
2022-08-20T07:20:12.085Z,3892.00
2022-08-20T07:21:12.312Z,3868.00
2022-08-20T07:22:12.617Z,3540.00
2022-08-20T07:23:12.862Z,3244.00
2022-08-20T07:24:13.089Z,3196.00
2022-08-20T07:25:13.330Z,3264.00
2022-08-20T07:26:13.591Z,3592.00
2022-08-20T07:27:13.932Z,3600.00
2022-08-20T07:28:14.279Z,3752.00
2022-08-20T07:29:14.492Z,4400.00
2022-08-20T07:30:15.182Z,6928.00
2022-08-20T07:31:16.026Z,6064.00
2022-08-20T07:32:15.246Z,7288.00
2022-08-20T07:33:15.480Z,8076.00
2022-08-20T07:34:15.743Z,10048.00
2022-08-20T07:35:16.004Z,14432.00
2022-08-20T07:36:16.267Z,14856.00
2022-08-20T07:37:16.590Z,19072.00
2022-08-20T07:38:16.828Z,14248.00
2022-08-20T07:39:17.062Z,9612.00
2022-08-20T07:40:19.508Z,10976.00
2022-08-20T07:41:18.642Z,15744.00
2022-08-20T07:42:17.922Z,15520.00
2022-08-20T07:43:18.175Z,13296.00
2022-08-20T07:44:18.360Z,21728.00
2022-08-20T07:45:18.605Z,22336.00
2022-08-20T07:46:20.784Z,24736.00
2022-08-20T07:47:19.095Z,23040.00
2022-08-20T07:48:29.720Z,24000.00
2022-08-20T07:49:20.622Z,24448.00
2022-08-20T07:50:19.878Z,24448.00
2022-08-20T07:51:20.139Z,24192.00
2022-08-20T07:52:20.369Z,24736.00
2022-08-20T07:53:20.656Z,25184.00
2022-08-20T07:54:20.884Z,19648.00
2022-08-20T07:55:21.127Z,12488.00
2022-08-20T07:56:21.441Z,23488.00
2022-08-20T07:57:21.605Z,24192.00
2022-08-20T07:58:21.944Z,24032.00
2022-08-20T07:59:23.247Z,24512.00
2022-08-20T08:00:22.598Z,21504.00
2022-08-20T08:01:22.944Z,11772.00
2022-08-20T08:02:23.137Z,11372.00
2022-08-20T08:03:39.462Z,12448.00
2022-08-20T08:04:24.815Z,10600.00
2022-08-20T08:05:24.073Z,17344.00
2022-08-20T08:06:29.423Z,23200.00
2022-08-20T08:07:25.656Z,23456.00
2022-08-20T08:08:24.885Z,23200.00
2022-08-20T08:09:25.107Z,21184.00
2022-08-20T08:10:25.521Z,9384.00
2022-08-20T08:11:25.761Z,16320.00
2022-08-20T08:12:25.952Z,22464.00
2022-08-20T08:13:26.219Z,24224.00
2022-08-20T08:14:26.433Z,23904.00
2022-08-20T08:15:26.689Z,23648.00
2022-08-20T08:16:27.066Z,23328.00
2022-08-20T08:17:27.303Z,24288.00
2022-08-20T08:18:31.721Z,21280.00
2022-08-20T08:19:27.803Z,23968.00
2022-08-20T08:20:28.043Z,10860.00
2022-08-20T08:21:28.303Z,23712.00
2022-08-20T08:22:28.511Z,22496.00
2022-08-20T08:23:32.138Z,22720.00
2022-08-20T08:24:29.053Z,22880.00
2022-08-20T08:25:29.412Z,22912.00
2022-08-20T08:26:29.679Z,24512.00
2022-08-20T08:28:57.013Z,32032.00
2022-08-20T08:29:59.890Z,34784.00
2022-08-20T08:30:57.534Z,34784.00
2022-08-20T08:31:57.813Z,34528.00
2022-08-20T08:32:58.233Z,35392.00
2022-08-20T08:33:58.361Z,37184.00
2022-08-20T08:34:58.606Z,38720.00
2022-08-20T08:35:58.853Z,39360.00
2022-08-20T08:36:59.095Z,37024.00
2022-08-20T08:37:59.336Z,37280.00
2022-08-20T08:38:59.572Z,35744.00
2022-08-20T08:39:59.895Z,37664.00
2022-08-20T08:41:00.405Z,37472.00
2022-08-20T08:42:00.338Z,37504.00
2022-08-20T08:43:00.643Z,35072.00
2022-08-20T08:44:08.608Z,28512.00
2022-08-20T08:45:01.314Z,10228.00
2022-08-20T08:46:01.576Z,36832.00
2022-08-20T08:47:01.886Z,37280.00
2022-08-20T08:48:02.129Z,12348.00
2022-08-20T08:49:02.387Z,9764.00
2022-08-20T08:50:02.726Z,10152.00
2022-08-20T08:51:02.927Z,11976.00
2022-08-20T08:52:03.201Z,10792.00
2022-08-20T08:53:03.414Z,10068.00
2022-08-20T08:54:07.002Z,16192.00
2022-08-20T08:55:03.984Z,12328.00
2022-08-20T08:56:04.240Z,11124.00
2022-08-20T08:57:04.573Z,9256.00
2022-08-20T08:58:16.592Z,8920.00
2022-08-20T08:59:06.073Z,8340.00
2022-08-20T09:00:05.471Z,7568.00
2022-08-20T09:01:08.150Z,7612.00
2022-08-20T09:02:06.906Z,8252.00
2022-08-20T09:03:07.498Z,7952.00
2022-08-20T09:04:06.399Z,7732.00
2022-08-20T09:05:06.790Z,7128.00
2022-08-20T09:06:07.086Z,6852.00
2022-08-20T09:07:07.347Z,6956.00
2022-08-20T09:08:07.545Z,7280.00
2022-08-20T09:09:07.779Z,7920.00
2022-08-20T09:10:08.001Z,7092.00
2022-08-20T09:11:08.321Z,7088.00
2022-08-20T09:12:08.515Z,7520.00
2022-08-20T09:13:08.815Z,7764.00
2022-08-20T09:14:09.051Z,8068.00
2022-08-20T09:15:09.286Z,8324.00
2022-08-20T09:16:09.525Z,8540.00
2022-08-20T09:17:09.779Z,9120.00
2022-08-20T09:18:10.073Z,8876.00
2022-08-20T09:19:10.434Z,8652.00
2022-08-20T09:20:10.654Z,8352.00
2022-08-20T09:21:10.891Z,8008.00
2022-08-20T09:22:11.141Z,8132.00
2022-08-20T09:23:11.344Z,8172.00
2022-08-20T09:24:11.719Z,7436.00
2022-08-20T09:25:12.023Z,7228.00
2022-08-20T09:26:12.255Z,8020.00
2022-08-20T09:27:12.505Z,8176.00
2022-08-20T09:28:12.837Z,7508.00
2022-08-20T09:29:13.126Z,7440.00
2022-08-20T09:30:13.367Z,7364.00
2022-08-20T09:31:13.641Z,7184.00
2022-08-20T09:32:14.025Z,7016.00
2022-08-20T09:33:14.225Z,6940.00
2022-08-20T09:34:14.411Z,7800.00
2022-08-20T09:35:14.757Z,8500.00
2022-08-20T09:36:31.671Z,9392.00
2022-08-20T09:37:16.276Z,9144.00
2022-08-20T09:38:15.584Z,8860.00
2022-08-20T09:39:15.923Z,8636.00
2022-08-20T09:40:16.337Z,8284.00
2022-08-20T09:41:17.500Z,7872.00
2022-08-20T09:42:16.773Z,8328.00
2022-08-20T09:43:17.051Z,9048.00
2022-08-20T09:44:17.284Z,9316.00
2022-08-20T09:45:17.521Z,8640.00
2022-08-20T09:46:17.779Z,8804.00
2022-08-20T09:47:18.110Z,10012.00
2022-08-20T09:48:18.366Z,9852.00
2022-08-20T09:49:18.580Z,9712.00
2022-08-20T09:50:18.881Z,8936.00
2022-08-20T09:51:19.222Z,8676.00
2022-08-20T09:52:19.469Z,8660.00
2022-08-20T09:53:19.804Z,8664.00
2022-08-20T09:54:20.019Z,8268.00
2022-08-20T09:55:20.349Z,8148.00
2022-08-20T09:56:20.690Z,7764.00
2022-08-20T09:57:21.056Z,7988.00
2022-08-20T09:58:21.282Z,8632.00
2022-08-20T09:59:21.532Z,8892.00
2022-08-20T10:00:22.737Z,8816.00
2022-08-20T10:01:22.114Z,8684.00
2022-08-20T10:02:22.205Z,8944.00
2022-08-20T10:03:22.433Z,8980.00
2022-08-20T10:04:22.675Z,8392.00
2022-08-20T10:05:22.928Z,7704.00
2022-08-20T10:06:23.234Z,7736.00
2022-08-20T10:07:23.483Z,8340.00
2022-08-20T10:08:23.691Z,8764.00
2022-08-20T10:09:23.953Z,8936.00
2022-08-20T10:10:24.163Z,9308.00
2022-08-20T10:11:24.441Z,8548.00
2022-08-20T10:12:24.784Z,8872.00
2022-08-20T10:13:24.964Z,9376.00
2022-08-20T10:14:25.199Z,9424.00
2022-08-20T10:15:25.427Z,9908.00
2022-08-20T10:16:25.687Z,9656.00
2022-08-20T10:17:26.005Z,9508.00
2022-08-20T10:18:26.243Z,9296.00
2022-08-20T10:19:26.584Z,9268.00
2022-08-20T10:20:26.898Z,8928.00
2022-08-20T10:21:27.138Z,8728.00
2022-08-20T10:22:27.427Z,8940.00
2022-08-20T10:23:27.596Z,8400.00
2022-08-20T10:24:27.839Z,7656.00
2022-08-20T10:25:28.070Z,7408.00
2022-08-20T10:26:28.307Z,7096.00
2022-08-20T10:27:28.558Z,7384.00
2022-08-20T10:28:28.856Z,7312.00
2022-08-20T10:29:29.107Z,7416.00
2022-08-20T10:30:29.330Z,7340.00
2022-08-20T10:31:29.609Z,8176.00
2022-08-20T10:32:29.807Z,8196.00
2022-08-20T10:33:30.114Z,7800.00
2022-08-20T10:34:30.408Z,8532.00
2022-08-20T10:35:30.637Z,8732.00
2022-08-20T10:36:30.879Z,7516.00
2022-08-20T10:37:31.149Z,7592.00
2022-08-20T10:38:31.442Z,8000.00
2022-08-20T10:39:31.692Z,8028.00
2022-08-20T10:40:31.897Z,8088.00
2022-08-20T10:41:32.128Z,7956.00
2022-08-20T10:42:32.404Z,6956.00
2022-08-20T10:43:32.714Z,7500.00
2022-08-20T10:44:32.950Z,6928.00
2022-08-20T10:45:33.181Z,7088.00
2022-08-20T10:46:33.454Z,6548.00
2022-08-20T10:47:33.801Z,6172.00
2022-08-20T10:48:34.004Z,6892.00
2022-08-20T10:49:34.326Z,8072.00
2022-08-20T10:50:34.659Z,8612.00
2022-08-20T10:51:34.987Z,8940.00
2022-08-20T10:52:35.213Z,8188.00
2022-08-20T10:53:35.426Z,7656.00
2022-08-20T10:54:35.665Z,8044.00
2022-08-20T10:55:35.883Z,7328.00
2022-08-20T10:56:36.135Z,6468.00
2022-08-20T10:57:36.404Z,5436.00
2022-08-20T10:58:39.482Z,4848.00
2022-08-20T10:59:36.931Z,5400.00
2022-08-20T11:00:37.257Z,5108.00
2022-08-20T11:01:37.524Z,4644.00
2022-08-20T11:02:37.774Z,4932.00
2022-08-20T11:03:38.007Z,4864.00
2022-08-20T11:04:38.353Z,4848.00
2022-08-20T11:05:38.553Z,4140.00
2022-08-20T11:06:38.793Z,4444.00
2022-08-20T11:07:52.815Z,4520.00
2022-08-20T11:08:40.354Z,4000.00
2022-08-20T11:09:39.629Z,3924.00
2022-08-20T11:10:39.877Z,4216.00
2022-08-20T11:11:40.113Z,5200.00
2022-08-20T11:12:40.404Z,7156.00
2022-08-20T11:13:40.604Z,7816.00
2022-08-20T11:14:40.843Z,8316.00
2022-08-20T11:15:41.108Z,7972.00
2022-08-20T11:16:41.424Z,7124.00
2022-08-20T11:17:41.786Z,6148.00
2022-08-20T11:18:47.313Z,5608.00
2022-08-20T11:19:43.397Z,4956.00
2022-08-20T11:20:42.668Z,5368.00
2022-08-20T11:21:42.920Z,5476.00
2022-08-20T11:22:43.191Z,5748.00
2022-08-20T11:23:43.409Z,6184.00
2022-08-20T11:24:43.732Z,6892.00
2022-08-20T11:25:44.097Z,6824.00
2022-08-20T11:26:44.312Z,6736.00
2022-08-20T11:27:44.618Z,6000.00
2022-08-20T11:28:44.993Z,5280.00
2022-08-20T11:29:45.171Z,5104.00
2022-08-20T11:30:45.421Z,5536.00
2022-08-20T11:31:45.658Z,5112.00
2022-08-20T11:32:45.921Z,5808.00
2022-08-20T11:33:46.236Z,6200.00
2022-08-20T11:34:46.492Z,6344.00
2022-08-20T11:35:48.226Z,6412.00
2022-08-20T11:36:47.022Z,6192.00
2022-08-20T11:37:47.313Z,5504.00
2022-08-20T11:38:47.517Z,5680.00
2022-08-20T11:39:47.866Z,5408.00
2022-08-20T11:40:48.081Z,5164.00
2022-08-20T11:41:48.333Z,5184.00
2022-08-20T11:43:13.096Z,5160.00
2022-08-20T11:44:10.550Z,5268.00
2022-08-20T11:44:50.183Z,5044.00
2022-08-20T11:45:49.449Z,5400.00
2022-08-20T11:46:49.694Z,5236.00
2022-08-20T11:47:50.045Z,5368.00
2022-08-20T11:48:50.203Z,5664.00
2022-08-20T11:49:50.508Z,5808.00
2022-08-20T11:50:50.727Z,5260.00
2022-08-20T11:51:50.959Z,4524.00
2022-08-20T11:52:51.351Z,4460.00
2022-08-20T11:53:51.554Z,4600.00
2022-08-20T11:54:55.049Z,4036.00
2022-08-20T11:55:52.061Z,3768.00
2022-08-20T11:56:52.382Z,3684.00
2022-08-20T11:57:52.655Z,3684.00
2022-08-20T11:58:52.896Z,3680.00
2022-08-20T11:59:53.215Z,3720.00
2022-08-20T12:00:53.445Z,3900.00
2022-08-20T12:02:02.889Z,3828.00
2022-08-20T12:02:55.085Z,3716.00
2022-08-20T12:03:54.258Z,3880.00
2022-08-20T12:04:54.618Z,4420.00
2022-08-20T12:05:54.827Z,4236.00
2022-08-20T12:06:55.075Z,3892.00
2022-08-20T12:07:55.404Z,3712.00
2022-08-20T12:08:55.743Z,4308.00
2022-08-20T12:09:56.067Z,4436.00
2022-08-20T12:10:56.286Z,4464.00
2022-08-20T12:11:56.627Z,4180.00
2022-08-20T12:12:57.082Z,4076.00
2022-08-20T12:13:57.159Z,4016.00
2022-08-20T12:14:57.365Z,4036.00
2022-08-20T12:15:57.627Z,4016.00
2022-08-20T12:16:57.961Z,4188.00
2022-08-20T12:17:58.234Z,4404.00
2022-08-20T12:18:58.541Z,4780.00
2022-08-20T12:19:58.862Z,4576.00
2022-08-20T12:20:59.046Z,4516.00
2022-08-20T12:21:59.355Z,4552.00
2022-08-20T12:23:00.624Z,4528.00
2022-08-20T12:23:59.888Z,4432.00
2022-08-20T12:25:00.168Z,4080.00
2022-08-20T12:26:00.356Z,3768.00
2022-08-20T12:27:00.589Z,3280.00
2022-08-20T12:28:00.817Z,2984.00
2022-08-20T12:29:01.061Z,3088.00
2022-08-20T12:30:01.293Z,2784.00
2022-08-20T12:31:01.522Z,2808.00
2022-08-20T12:32:01.751Z,3368.00
2022-08-20T12:33:02.051Z,3460.00
2022-08-20T12:34:02.245Z,3504.00